This is the latest recevied weather packets stored in our database for station/object W0RMT-13. If no packets are shown the sender has not sent any weather packets the latest 1 day(s).
| Time | Temp. | Humidity | Pressure | Rain* | Wind** | Luminosity | Snow |
|---|---|---|---|---|---|---|---|
| 1778086293 | 0° C | 99% | 1019.8 hPa | 0 mm | - | 24 W/m² | - |
| 1778085658 | 0° C | 99% | 1019.8 hPa | 0 mm | - | 28 W/m² | - |
| 1778080974 | -0.56° C | 99% | 1018.7 hPa | 0 mm | - | 24 W/m² | - |
| 1778080370 | -0.56° C | 99% | 1018.7 hPa | 0 mm | - | 21 W/m² | - |
| 1778079768 | -0.56° C | 99% | 1018.7 hPa | 0 mm | - | 20 W/m² | - |
| 1778079138 | -0.56° C | 99% | 1018.7 hPa | 0 mm | - | 16 W/m² | - |
| 1778073399 | -0.56° C | 99% | 1017.4 hPa | 0 mm | - | 5 W/m² | - |
| 1778070028 | -0.56° C | 99% | 1016.7 hPa | 0 mm | - | 0 W/m² | - |
| 1778069411 | -0.56° C | 99% | 1016.7 hPa | 0 mm | - | 0 W/m² | - |
| 1778068786 | -0.56° C | 99% | 1016.7 hPa | 0 mm | - | 0 W/m² | - |
| 1778067409 | -0.56° C | 99% | 1016.7 hPa | 0 mm | - | 0 W/m² | - |
| 1778066723 | -0.56° C | 99% | 1016.2 hPa | 0 mm | - | 0 W/m² | - |
| 1778063478 | -0.56° C | 99% | 1016.2 hPa | 0 mm | - | 0 W/m² | - |
| 1778062180 | -0.56° C | 99% | 1016.2 hPa | 0 mm | - | 0 W/m² | - |
| 1778061561 | -0.56° C | 99% | 1016.7 hPa | 0 mm | - | 0 W/m² | - |
| 1778060940 | -0.56° C | 99% | 1016.2 hPa | 0 mm | - | 0 W/m² | - |
| 1778057116 | -0.56° C | 99% | 1016.2 hPa | 0 mm | - | 0 W/m² | - |
| 1778056408 | -0.56° C | 99% | 1015.8 hPa | 0 mm | - | 0 W/m² | - |
| 1778054499 | -0.56° C | 99% | 1016.2 hPa | 0 mm | - | 0 W/m² | - |
| 1778053881 | -0.56° C | 99% | 1016.2 hPa | 0 mm | - | 0 W/m² | - |
| 1778053191 | 0° C | 99% | 1016.7 hPa | 0 mm | - | 0 W/m² | - |
| 1778051894 | 0° C | 99% | 1016.2 hPa | 0 mm | - | 0 W/m² | - |
| 1778050626 | 0° C | 99% | 1016.2 hPa | 0 mm | - | 0 W/m² | - |
| 1778047386 | 0° C | 99% | 1015.4 hPa | 0 mm | - | 0 W/m² | - |
| 1778046710 | 0° C | 99% | 1015.8 hPa | 0 mm | - | 0 W/m² | - |
* Rain latest hour (hover to see other rain measurements)
** Current wind speed in m/s (hover to see current wind gust speed)